MMMXMMOX

Guest
Details From MMMX - Licenciado Benito Juarez Intl
To MMOX - XOXOCOTLAN INTL
Flight Number -
Tags generated
Created
Modified
Stats Distance 206 nm / 382 km
Max Altitude 19,500 ft / 5,944 m
Waypoints 4
Social Downloads 0
Likes 0
Share VATSIM

Download

Looking for another format? Having issues loading an existing format? Contact us
Advertisement - Login to hide

Notes

Basic altitude profile: - Ascent Rate: 2000ft/min - Ascent Speed: 250kts - Cruise Altitude: 33000ft - Cruise Speed: 485kts - Descent Rate: 2000ft/min - Descent Speed: 250kts Options: - Use NATs: no - Use PACOTS: no - Use low airways: no - Use high airways: yes

Route

MMMX PBC UJ33 OAX MMOX

ID Type Via Altitude Latitude Longitude Leg Dist Tot Dist Heading (true) Name
O MMMX APT - 0 ft / 0 m 19.43631˚ -99.07210˚ - 0 nm - Licenciado Benito Juarez Intl
PBC VOR - 15,300 ft / 4,663 m 19.16092˚ -98.37017˚ 43 nm 43 nm 112° / 113° PUEBLA VOR-DME
OAX VOR UJ33 (AWY-HI) 19,500 ft / 5,944 m 16.97225˚ -96.73136˚ 161 nm 204 nm 144° / 145° OAXACA VOR-DME
O MMOX APT - 0 ft / 0 m 16.99870˚ -96.72594˚ 1 nm 206 nm 11° / 11° XOXOCOTLAN INTL

Altitude Profile

Advertisement - Login to hide

Weather


0- 5 10 15 20 25 30 35+ Temperature / ° C

Clouds and Precipitation
Forecast for 2018-05-24 18:00 UTC. Updated 3 hours ago

Ground ~20,000 ft ~40,000 ft Winds

MMMX

Details ICAO MMMX (MEX)
Name Licenciado Benito Juarez Intl
Region Mexico
Timezone America/Mexico_City (UTC-5.0)
Stats Elevation 7,316 ft / 2,230 m (AMSL)
Location 19.436308° -99.072104°
Runways 2
Magnetic Variation 4.597° E

METAR

MMMX 241848Z 34005G18KT 8SM SKC 26/M02 A3034 NOSIG RMK HZY CU

Decode

TAF

TAF MMMX 241114Z 2412/2518 06005KT P6SM SCT080 SCT200 TX27/2421Z TN14/2412Z FM242100 06010KT P6SM SCT020 PROB40 2422/2502 5SM TSRA BKN020CB FM250300 03005KT P6SM SCT020 SCT100 FM251700 08005KT P6SM SCT020

Decode

Departure Runways

ID Width Length Bearing (true) Bearing (mag) Surface Threshold Offset Overrun Length
05L 148 ft / 45 m 12,951 ft / 3,948 m 59.25° 54.65° Asphalt 1,033 ft / 315 m 0 ft / 0 m
05R 148 ft / 45 m 12,800 ft / 3,902 m 59.26° 54.66° Asphalt 1,493 ft / 455 m 0 ft / 0 m
23L 148 ft / 45 m 12,800 ft / 3,902 m 239.28° 234.68° Asphalt 0 ft / 0 m 200 ft / 61 m
23R 148 ft / 45 m 12,951 ft / 3,948 m 239.27° 234.67° Asphalt 1,640 ft / 500 m 0 ft / 0 m

MMOX

Details ICAO MMOX (OAX)
Name XOXOCOTLAN INTL
Region Mexico
Timezone America/Mexico_City (UTC-5.0)
Stats Elevation 4,989 ft / 1,521 m (AMSL)
Location 16.998701° -96.725944°
Runways 1
Magnetic Variation 3.732° E

METAR

MMOX 241946Z 00000KT 12SM SCT220 31/01 A3016 RMK 8/008 ISOL CU

Decode

TAF

Not found

Destination Runways

ID Width Length Bearing (true) Bearing (mag) Surface Threshold Offset Overrun Length
01 148 ft / 45 m 8,072 ft / 2,460 m 15.62° 11.89° Asphalt 0 ft / 0 m 188 ft / 57 m
19 148 ft / 45 m 8,072 ft / 2,460 m 195.62° 191.89° Asphalt 0 ft / 0 m 188 ft / 57 m

Popular Alternatives